Time;durP1;ratioP1;P1;durP2;ratioP2;P2;SDS_P1;SDS_P2;PMS_P1;PMS_P2;Temp;Humidity;BMP_temperature;BMP_pressure;BME280_temperature;BME280_humidity;BME280_pressure;Samples;Min_cycle;Max_cycle;Signal;HPM_P1;HPM_P2
2023/09/12 00:00:35;;;;;;;;;7.60;7.60;;;;;22.43;62.20;99557.31;5097419;28;8861;-59
2023/09/12 00:03:03;;;;;;;;;8.20;8.20;;;;;22.38;61.90;99559.78;5097537;28;8838;-58
2023/09/12 00:05:31;;;;;;;;;9.40;9.40;;;;;22.30;62.46;99563.53;5097410;28;8814;-58
2023/09/12 00:07:59;;;;;;;;;8.00;7.60;;;;;22.25;62.71;99567.91;5098571;28;8840;-57
2023/09/12 00:10:26;;;;;;;;;8.40;8.40;;;;;22.19;62.31;99561.44;5096642;28;8833;-59
2023/09/12 00:12:54;;;;;;;;;9.00;9.00;;;;;22.14;63.04;99552.22;5096656;28;8902;-58
2023/09/12 00:15:21;;;;;;;;;5.60;5.00;;;;;22.08;62.49;99542.19;5096635;28;8826;-60
2023/09/12 00:17:50;;;;;;;;;4.40;4.00;;;;;22.03;63.17;99536.53;5097233;28;8830;-60
2023/09/12 00:20:18;;;;;;;;;8.80;8.80;;;;;21.98;62.99;99530.88;5096621;28;8842;-58
2023/09/12 00:22:45;;;;;;;;;12.20;11.20;;;;;21.92;62.89;99531.69;5096644;28;8826;-59
2023/09/12 00:25:13;;;;;;;;;8.00;7.40;;;;;21.88;63.21;99533.16;5097413;28;8834;-58
2023/09/12 00:27:41;;;;;;;;;10.80;9.60;;;;;21.83;63.37;99532.94;5095944;28;8833;-58
2023/09/12 00:30:08;;;;;;;;;9.00;9.00;;;;;21.77;63.21;99529.16;5095277;28;8841;-58
2023/09/12 00:32:36;;;;;;;;;10.60;8.40;;;;;21.72;63.70;99523.50;5096208;28;8830;-57
2023/09/12 00:35:03;;;;;;;;;12.80;10.60;;;;;21.68;63.55;99519.53;5095921;28;8844;-59
2023/09/12 00:37:31;;;;;;;;;8.00;7.60;;;;;21.63;63.93;99521.97;5096404;28;8826;-58
2023/09/12 00:39:59;;;;;;;;;10.20;9.00;;;;;21.60;64.07;99516.13;5096450;28;8810;-59
2023/09/12 00:42:26;;;;;;;;;2.40;2.40;;;;;21.55;63.86;99516.75;5096656;28;9511;-58
2023/09/12 00:44:54;;;;;;;;;8.00;8.00;;;;;21.51;63.86;99517.34;5095790;28;8891;-58
2023/09/12 00:47:22;;;;;;;;;7.20;7.20;;;;;21.46;64.27;99522.53;5096052;28;9535;-60
2023/09/12 00:49:50;;;;;;;;;11.60;9.00;;;;;21.40;64.48;99526.06;5097306;28;8832;-58
2023/09/12 00:52:23;;;;;;;;;10.20;10.20;;;;;21.35;64.27;99529.34;5095974;28;8907;-58
2023/09/12 00:54:51;;;;;;;;;9.40;8.80;;;;;21.32;64.43;99528.91;5096008;28;8830;-58
2023/09/12 00:57:18;;;;;;;;;11.60;10.60;;;;;21.29;64.44;99529.31;5096410;28;8849;-59
2023/09/12 00:59:46;;;;;;;;;14.40;12.60;;;;;21.26;64.36;99527.03;5095439;28;8822;-60
2023/09/12 01:02:13;;;;;;;;;16.00;15.00;;;;;21.23;64.26;99530.97;5095931;28;8841;-59
2023/09/12 01:04:41;;;;;;;;;11.20;10.60;;;;;21.21;64.25;99532.19;5094559;28;8910;-59
2023/09/12 01:07:09;;;;;;;;;10.40;9.80;;;;;21.18;64.84;99538.03;5096310;28;8899;-58
2023/09/12 01:09:36;;;;;;;;;12.00;11.80;;;;;21.16;64.80;99540.06;5095773;28;8839;-59
2023/09/12 01:12:04;;;;;;;;;8.00;8.00;;;;;21.18;64.62;99546.16;5096207;28;8837;-58
2023/09/12 01:14:32;;;;;;;;;7.80;7.80;;;;;21.18;64.49;99551.56;5096583;28;8822;-58
2023/09/12 01:17:00;;;;;;;;;8.00;7.00;;;;;21.19;64.89;99567.59;5095434;28;8854;-58
2023/09/12 01:19:28;;;;;;;;;6.60;5.00;;;;;21.21;64.45;99570.13;5094842;28;8834;-58
2023/09/12 01:21:56;;;;;;;;;5.00;4.40;;;;;21.22;64.38;99571.78;5095142;28;8830;-58
2023/09/12 01:24:23;;;;;;;;;5.40;4.80;;;;;21.22;64.41;99574.50;5094898;28;8821;-58
2023/09/12 01:26:51;;;;;;;;;5.00;4.60;;;;;21.21;64.75;99581.81;5096038;28;8834;-58
2023/09/12 01:29:18;;;;;;;;;4.80;4.00;;;;;21.19;64.93;99596.56;5094834;28;8806;-59
2023/09/12 01:31:46;;;;;;;;;4.80;4.80;;;;;21.17;64.39;99580.50;5095542;28;8849;-60
2023/09/12 01:34:15;;;;;;;;;5.80;5.80;;;;;21.16;64.91;99586.13;5094804;28;8929;-59
2023/09/12 01:36:42;;;;;;;;;5.40;5.40;;;;;21.15;64.98;99568.19;5096010;28;8865;-58
2023/09/12 01:39:10;;;;;;;;;7.20;5.40;;;;;21.14;64.82;99567.38;5095185;28;8846;-58
2023/09/12 01:41:37;;;;;;;;;5.00;5.00;;;;;21.15;64.44;99562.78;5096168;28;8911;-58
2023/09/12 01:44:06;;;;;;;;;4.00;2.00;;;;;21.11;64.85;99554.22;5095126;28;8826;-59
2023/09/12 01:46:33;;;;;;;;;7.00;7.00;;;;;21.11;64.73;99553.41;5095499;28;8995;-58
2023/09/12 01:49:01;;;;;;;;;7.00;7.00;;;;;21.10;64.92;99546.31;5094120;28;9487;-59
2023/09/12 01:51:29;;;;;;;;;10.40;8.80;;;;;21.09;65.04;99544.59;5094523;28;8884;-57
2023/09/12 01:53:56;;;;;;;;;7.60;7.00;;;;;21.07;64.75;99549.41;5094305;28;8825;-58
2023/09/12 01:56:24;;;;;;;;;10.00;7.20;;;;;21.04;64.81;99544.38;5094765;28;9483;-58
2023/09/12 01:58:52;;;;;;;;;10.00;9.60;;;;;21.02;65.06;99531.03;5094350;28;8844;-58
2023/09/12 02:01:19;;;;;;;;;6.60;6.60;;;;;21.01;65.25;99514.97;5095103;28;8838;-58
2023/09/12 02:03:47;;;;;;;;;8.20;8.20;;;;;21.03;65.15;99515.63;5095190;28;8861;-60
2023/09/12 02:06:15;;;;;;;;;11.60;11.00;;;;;21.02;64.76;99505.84;5094909;28;8818;-58
2023/09/12 02:08:42;;;;;;;;;11.00;10.00;;;;;20.99;65.15;99512.50;5094113;28;8833;-60
2023/09/12 02:11:10;;;;;;;;;10.20;10.20;;;;;20.96;65.28;99518.28;5093523;28;8810;-59
2023/09/12 02:13:38;;;;;;;;;10.40;10.20;;;;;20.92;65.02;99525.16;5094502;28;8821;-57
2023/09/12 02:16:06;;;;;;;;;7.00;4.60;;;;;20.88;65.28;99537.41;5093754;28;9181;-60
2023/09/12 02:18:34;;;;;;;;;7.20;7.00;;;;;20.87;65.54;99540.31;5094481;28;8849;-58
2023/09/12 02:21:02;;;;;;;;;8.00;7.60;;;;;20.83;65.55;99539.00;5093821;28;8899;-58
2023/09/12 02:23:30;;;;;;;;;10.60;10.40;;;;;20.79;65.61;99535.84;5094117;28;8956;-60
2023/09/12 02:25:57;;;;;;;;;8.40;8.00;;;;;20.78;65.79;99530.63;5093230;28;8829;-59
2023/09/12 02:28:25;;;;;;;;;8.20;8.20;;;;;20.77;65.45;99533.53;5093976;28;8822;-60
2023/09/12 02:30:53;;;;;;;;;11.00;9.00;;;;;20.74;65.54;99534.75;5094078;28;8815;-60
2023/09/12 02:33:21;;;;;;;;;6.40;5.40;;;;;20.72;65.42;99554.94;5094422;28;8822;-60
2023/09/12 02:35:49;;;;;;;;;10.20;10.20;;;;;20.69;65.94;99558.88;5094051;28;8974;-59
2023/09/12 02:38:16;;;;;;;;;7.00;6.60;;;;;20.66;66.08;99563.81;5093803;28;8818;-58
2023/09/12 02:40:44;;;;;;;;;8.40;7.60;;;;;20.62;66.39;99567.97;5093978;28;8825;-58
2023/09/12 02:43:12;;;;;;;;;8.00;8.00;;;;;20.59;66.04;99569.19;5093879;28;8849;-59
2023/09/12 02:45:39;;;;;;;;;13.00;8.00;;;;;20.57;65.96;99579.38;5093377;28;8857;-59
2023/09/12 02:48:07;;;;;;;;;9.00;8.00;;;;;20.55;65.90;99578.72;5094375;28;8837;-57
2023/09/12 02:50:35;;;;;;;;;9.40;8.40;;;;;20.53;66.07;99580.78;5093600;28;8814;-57
2023/09/12 02:53:03;;;;;;;;;7.00;7.00;;;;;20.50;65.89;99578.50;5094512;28;8841;-58
2023/09/12 02:55:31;;;;;;;;;14.20;10.60;;;;;20.49;66.08;99576.78;5094411;28;8979;-60
2023/09/12 02:57:58;;;;;;;;;8.00;7.40;;;;;20.50;65.95;99566.81;5094890;28;8837;-57
2023/09/12 03:00:26;;;;;;;;;13.00;12.40;;;;;20.49;66.41;99551.63;5094533;28;8948;-59
2023/09/12 03:02:54;;;;;;;;;10.20;8.80;;;;;20.47;65.97;99550.97;5094258;28;8960;-60
2023/09/12 03:05:21;;;;;;;;;11.20;10.00;;;;;20.48;66.05;99539.94;5094509;28;8834;-58
2023/09/12 03:07:49;;;;;;;;;15.20;14.20;;;;;20.49;66.03;99533.50;5094437;28;8861;-60
2023/09/12 03:10:17;;;;;;;;;9.60;9.20;;;;;20.47;65.89;99524.75;5094936;28;8811;-57
2023/09/12 03:12:44;;;;;;;;;10.80;10.80;;;;;20.45;66.03;99515.13;5094491;28;8837;-60
2023/09/12 03:15:12;;;;;;;;;13.80;10.80;;;;;20.43;66.19;99517.22;5094370;28;8830;-60
2023/09/12 03:17:40;;;;;;;;;11.80;11.00;;;;;20.40;66.52;99512.19;5093671;28;8907;-60
2023/09/12 03:20:08;;;;;;;;;13.60;8.40;;;;;20.35;66.63;99523.63;5094220;28;8960;-59
2023/09/12 03:22:37;;;;;;;;;13.40;12.20;;;;;20.31;66.91;99521.50;5093949;28;8853;-60
2023/09/12 03:25:06;;;;;;;;;14.60;13.00;;;;;20.30;66.77;99536.03;5094322;28;8958;-60
2023/09/12 03:27:34;;;;;;;;;13.80;11.40;;;;;20.29;66.62;99532.50;5094416;28;8830;-60
2023/09/12 03:30:01;;;;;;;;;10.00;9.60;;;;;20.29;66.32;99529.78;5096446;28;8830;-58
2023/09/12 03:32:29;;;;;;;;;7.60;6.20;;;;;20.30;66.73;99531.47;5096977;28;8974;-60
2023/09/12 03:34:57;;;;;;;;;10.00;8.00;;;;;20.32;66.49;99529.38;5096797;28;8968;-60
2023/09/12 03:37:27;;;;;;;;;10.20;10.20;;;;;20.35;66.50;99547.97;5097617;28;8822;-60
2023/09/12 03:39:54;;;;;;;;;13.60;12.20;;;;;20.37;66.49;99556.72;5096979;28;8822;-61
2023/09/12 03:42:22;;;;;;;;;11.80;10.80;;;;;20.38;65.95;99549.41;5097180;28;8837;-60
2023/09/12 03:44:53;;;;;;;;;11.40;9.60;;;;;20.37;66.33;99550.44;5097431;28;8976;-59
2023/09/12 03:47:21;;;;;;;;;16.00;13.40;;;;;20.38;66.34;99560.22;5097462;28;8842;-60
2023/09/12 03:49:49;;;;;;;;;9.20;8.00;;;;;20.40;66.58;99567.13;5097173;28;8818;-60
2023/09/12 03:52:16;;;;;;;;;15.80;14.40;;;;;20.41;65.87;99576.09;5097346;28;8829;-59
2023/09/12 03:54:44;;;;;;;;;16.40;13.00;;;;;20.41;66.19;99566.09;5097226;28;8849;-59
2023/09/12 03:57:11;;;;;;;;;15.60;14.40;;;;;20.35;66.57;99558.78;5097078;28;8915;-59
2023/09/12 03:59:39;;;;;;;;;17.20;14.60;;;;;20.25;66.89;99555.53;5097137;28;8832;-58
2023/09/12 04:02:07;;;;;;;;;17.60;16.60;;;;;20.15;67.23;99560.44;5096273;28;8838;-59
2023/09/12 04:04:34;;;;;;;;;17.80;16.40;;;;;20.06;67.28;99560.75;5097096;28;9499;-58
2023/09/12 04:07:02;;;;;;;;;17.20;16.00;;;;;20.01;67.67;99550.47;5097069;28;8822;-61
2023/09/12 04:09:30;;;;;;;;;18.00;16.20;;;;;19.96;67.50;99554.78;5097027;28;8918;-59
2023/09/12 04:11:58;;;;;;;;;12.20;11.80;;;;;19.92;67.79;99548.91;5096508;28;8814;-60
2023/09/12 04:14:26;;;;;;;;;19.80;17.20;;;;;19.89;67.37;99538.47;5096464;28;8860;-58
2023/09/12 04:16:53;;;;;;;;;15.80;15.40;;;;;19.86;67.90;99530.75;5096315;28;8868;-59
2023/09/12 04:19:21;;;;;;;;;20.00;18.40;;;;;19.83;67.85;99527.59;5096642;28;9475;-58
2023/09/12 04:21:49;;;;;;;;;20.20;18.20;;;;;19.82;68.29;99534.03;5096464;28;8825;-58
2023/09/12 04:24:17;;;;;;;;;19.40;17.00;;;;;19.80;68.59;99528.00;5096362;28;8829;-59
2023/09/12 04:26:45;;;;;;;;;21.20;19.00;;;;;19.78;68.70;99524.63;5096661;28;8927;-61
2023/09/12 04:29:13;;;;;;;;;24.40;22.20;;;;;19.79;68.49;99516.31;5096372;28;8810;-58
2023/09/12 04:31:40;;;;;;;;;20.80;18.20;;;;;19.81;68.15;99518.84;5096203;28;8819;-58
2023/09/12 04:34:08;;;;;;;;;21.80;20.20;;;;;19.83;68.56;99511.38;5095762;28;8826;-59
2023/09/12 04:36:35;;;;;;;;;18.80;18.80;;;;;19.86;68.00;99506.44;5095865;28;8830;-58
2023/09/12 04:39:04;;;;;;;;;23.40;20.40;;;;;19.88;68.21;99501.66;5095277;28;8841;-59
2023/09/12 04:41:32;;;;;;;;;23.00;20.20;;;;;19.91;68.56;99495.03;5095033;28;8834;-58
2023/09/12 04:44:02;;;;;;;;;22.40;20.00;;;;;19.91;68.42;99493.19;5095259;28;8822;-59
2023/09/12 04:46:29;;;;;;;;;29.40;24.80;;;;;19.90;68.50;99494.22;5095765;28;8965;-58
2023/09/12 04:48:57;;;;;;;;;24.80;20.60;;;;;19.91;68.31;99492.34;5095622;28;8891;-58
2023/09/12 04:51:26;;;;;;;;;24.40;21.80;;;;;19.92;68.37;99494.84;5095654;28;8838;-58
2023/09/12 04:53:54;;;;;;;;;16.60;14.40;;;;;19.92;68.46;99502.97;5095818;28;8814;-60
2023/09/12 04:56:24;;;;;;;;;19.80;17.20;;;;;19.93;68.93;99501.09;5095395;28;8929;-59
2023/09/12 04:58:51;;;;;;;;;26.20;23.20;;;;;19.94;68.50;99498.19;5095313;28;8984;-59
2023/09/12 05:01:20;;;;;;;;;20.00;18.80;;;;;19.96;68.58;99498.84;5094417;28;8841;-58
2023/09/12 05:03:47;;;;;;;;;22.40;20.60;;;;;19.97;68.33;99492.41;5094845;28;8834;-57
2023/09/12 05:06:15;;;;;;;;;20.40;18.60;;;;;20.00;68.75;99483.91;5095211;28;8842;-59
2023/09/12 05:08:43;;;;;;;;;20.40;17.40;;;;;20.01;68.87;99485.59;5095309;28;8869;-60
2023/09/12 05:11:11;;;;;;;;;21.20;17.20;;;;;20.01;69.05;99477.47;5094620;28;8838;-59
2023/09/12 05:13:41;;;;;;;;;24.20;20.20;;;;;20.02;68.59;99484.53;5094101;28;8834;-59
2023/09/12 05:16:08;;;;;;;;;17.00;17.00;;;;;20.03;68.70;99475.41;5093685;28;8919;-59
2023/09/12 05:18:36;;;;;;;;;19.60;15.40;;;;;20.04;68.74;99471.66;5093854;28;8920;-59
2023/09/12 05:21:04;;;;;;;;;17.00;16.20;;;;;20.05;68.95;99464.44;5093759;28;8841;-59
2023/09/12 05:23:31;;;;;;;;;16.20;15.00;;;;;20.07;68.89;99468.63;5094032;28;8826;-61
2023/09/12 05:25:59;;;;;;;;;16.40;14.00;;;;;20.09;68.89;99473.84;5094631;28;9523;-58
2023/09/12 05:28:26;;;;;;;;;18.60;17.60;;;;;20.09;69.06;99471.16;5094713;28;9507;-60
2023/09/12 05:30:54;;;;;;;;;19.40;17.80;;;;;20.10;68.71;99476.34;5094574;28;9811;-59
2023/09/12 05:33:22;;;;;;;;;17.20;16.20;;;;;20.10;68.86;99479.03;5094390;28;8837;-59
2023/09/12 05:35:50;;;;;;;;;23.40;20.40;;;;;20.12;68.84;99477.00;5094575;28;8826;-59
2023/09/12 05:38:18;;;;;;;;;24.40;21.80;;;;;20.14;68.87;99472.22;5094670;28;8837;-59
2023/09/12 05:40:45;;;;;;;;;22.60;19.00;;;;;20.18;68.77;99473.50;5094817;28;8818;-58
2023/09/12 05:43:13;;;;;;;;;16.00;12.60;;;;;20.21;68.60;99473.13;5094566;28;8834;-59
2023/09/12 05:45:40;;;;;;;;;20.40;17.40;;;;;20.23;68.50;99475.63;5093703;28;8849;-58
2023/09/12 05:48:09;;;;;;;;;26.00;22.80;;;;;20.24;68.68;99467.31;5093234;28;8826;-59
2023/09/12 05:50:37;;;;;;;;;18.00;15.40;;;;;20.27;68.60;99461.53;5092801;28;9804;-59
2023/09/12 05:53:04;;;;;;;;;20.00;18.00;;;;;20.30;68.76;99455.72;5092218;28;8831;-58
2023/09/12 05:55:32;;;;;;;;;15.00;13.20;;;;;20.33;68.66;99462.63;5092195;28;8902;-59
2023/09/12 05:58:00;;;;;;;;;18.00;16.80;;;;;20.37;68.23;99469.28;5092675;28;8841;-58
2023/09/12 06:00:28;;;;;;;;;19.40;17.20;;;;;20.42;68.01;99478.53;5092160;28;8838;-59
2023/09/12 06:02:56;;;;;;;;;21.60;20.20;;;;;20.48;67.92;99472.31;5092732;28;8838;-59
2023/09/12 06:05:23;;;;;;;;;24.60;22.60;;;;;20.53;68.08;99477.97;5092433;28;8856;-59
2023/09/12 06:07:51;;;;;;;;;17.60;14.00;;;;;20.57;68.09;99467.59;5092729;28;8826;-59
2023/09/12 06:10:19;;;;;;;;;14.20;14.20;;;;;20.60;68.12;99462.63;5092153;28;8855;-59
2023/09/12 06:12:47;;;;;;;;;16.40;16.20;;;;;20.63;67.48;99467.63;5091777;28;8833;-59
2023/09/12 06:15:14;;;;;;;;;20.20;19.20;;;;;20.67;68.00;99460.78;5091564;28;8828;-58
2023/09/12 06:17:42;;;;;;;;;14.00;13.60;;;;;20.73;67.73;99474.38;5092728;28;8939;-60
2023/09/12 06:20:10;;;;;;;;;22.80;21.20;;;;;20.78;67.25;99479.19;5093298;28;9547;-60
2023/09/12 06:22:37;;;;;;;;;24.80;21.20;;;;;20.82;67.59;99475.06;5092646;28;9650;-59
2023/09/12 06:25:05;;;;;;;;;20.20;18.80;;;;;20.88;67.35;99478.88;5093403;28;8856;-59
2023/09/12 06:27:34;;;;;;;;;19.60;18.20;;;;;20.93;67.12;99496.19;5093513;28;8822;-60
2023/09/12 06:30:01;;;;;;;;;20.20;18.80;;;;;20.95;67.38;99491.44;5093289;28;8842;-60
2023/09/12 06:32:29;;;;;;;;;20.40;15.60;;;;;20.95;67.02;99496.84;5092644;28;8833;-57
2023/09/12 06:34:57;;;;;;;;;24.00;21.00;;;;;20.93;67.07;99510.56;5092471;28;8848;-59
2023/09/12 06:37:24;;;;;;;;;21.80;19.20;;;;;20.88;67.33;99518.44;5091945;28;8818;-59
2023/09/12 06:39:52;;;;;;;;;16.80;15.20;;;;;20.85;67.40;99520.66;5093063;28;9919;-58
2023/09/12 06:42:20;;;;;;;;;25.00;20.20;;;;;20.77;67.55;99534.34;5092654;28;8846;-59
2023/09/12 06:44:48;;;;;;;;;21.00;20.40;;;;;20.70;68.07;99543.47;5093130;28;8918;-58
2023/09/12 06:47:16;;;;;;;;;27.00;21.60;;;;;20.65;68.31;99530.53;5093182;28;8854;-59
2023/09/12 06:49:44;;;;;;;;;20.60;19.80;;;;;20.62;68.20;99520.09;5093591;28;8845;-59
2023/09/12 06:52:17;;;;;;;;;16.40;16.00;;;;;20.49;68.71;99519.97;5094159;28;8906;-60
2023/09/12 06:54:45;;;;;;;;;20.00;17.00;;;;;20.38;69.30;99523.22;5093826;28;8822;-59
2023/09/12 06:57:13;;;;;;;;;18.80;18.40;;;;;20.34;69.11;99524.63;5094109;28;8849;-60
2023/09/12 06:59:41;;;;;;;;;22.00;18.80;;;;;20.33;69.22;99538.34;5093927;28;8841;-60
2023/09/12 07:02:09;;;;;;;;;18.40;17.40;;;;;20.31;69.22;99541.25;5094923;28;8841;-61
2023/09/12 07:04:38;;;;;;;;;25.80;22.60;;;;;20.30;69.10;99554.94;5097023;28;9515;-59
2023/09/12 07:07:05;;;;;;;;;18.40;17.40;;;;;20.27;69.56;99568.88;5097275;28;8842;-58
2023/09/12 07:09:33;;;;;;;;;21.80;19.20;;;;;20.22;69.14;99564.03;5097064;28;8845;-58
2023/09/12 07:12:01;;;;;;;;;26.00;22.20;;;;;20.20;69.62;99555.28;5097031;28;8834;-60
2023/09/12 07:14:31;;;;;;;;;25.40;23.20;;;;;20.18;69.98;99560.03;5097010;28;8848;-60
2023/09/12 07:16:59;;;;;;;;;20.80;15.60;;;;;20.16;69.81;99558.59;5096213;28;8854;-60
2023/09/12 07:19:26;;;;;;;;;20.40;18.40;;;;;20.16;69.67;99582.91;5095624;28;8830;-58
2023/09/12 07:21:54;;;;;;;;;18.40;17.60;;;;;20.13;69.87;99603.06;5096301;28;8870;-61
2023/09/12 07:24:22;;;;;;;;;20.00;17.80;;;;;20.05;70.09;99619.41;5096387;28;8841;-58
2023/09/12 07:26:50;;;;;;;;;17.80;16.80;;;;;19.95;70.38;99629.63;5097058;28;9629;-61
2023/09/12 07:29:19;;;;;;;;;12.20;11.00;;;;;19.89;70.53;99627.66;5096043;28;8857;-61
2023/09/12 07:31:46;;;;;;;;;20.80;16.00;;;;;19.86;70.41;99601.03;5096520;28;8911;-60
2023/09/12 07:34:14;;;;;;;;;17.40;16.20;;;;;19.83;70.39;99585.19;5096355;28;8849;-59
2023/09/12 07:36:42;;;;;;;;;23.40;21.20;;;;;19.87;70.29;99586.47;5096974;28;8833;-61
2023/09/12 07:39:10;;;;;;;;;26.00;23.40;;;;;19.89;70.32;99580.91;5097657;28;8830;-60
2023/09/12 07:41:39;;;;;;;;;26.80;22.80;;;;;19.93;70.39;99587.59;5096735;28;8911;-58
2023/09/12 07:44:10;;;;;;;;;18.40;17.20;;;;;19.96;70.66;99595.34;5096207;28;8830;-60
2023/09/12 07:46:38;;;;;;;;;17.40;15.60;;;;;20.02;70.53;99591.88;5096653;28;8919;-61
2023/09/12 07:49:08;;;;;;;;;16.00;15.80;;;;;20.10;70.26;99589.91;5096395;28;8915;-61
2023/09/12 07:51:35;;;;;;;;;18.40;17.40;;;;;20.22;69.94;99579.41;5095955;28;8845;-59
2023/09/12 07:54:03;;;;;;;;;21.40;20.20;;;;;20.33;69.60;99566.22;5095994;28;8826;-61
2023/09/12 07:56:31;;;;;;;;;17.60;16.60;;;;;20.48;69.20;99569.69;5095777;28;8836;-60
2023/09/12 07:58:59;;;;;;;;;22.00;18.00;;;;;20.62;69.19;99566.09;5095582;28;8834;-60
2023/09/12 08:01:27;;;;;;;;;20.80;20.00;;;;;20.73;68.37;99566.41;5094492;28;8850;-58
2023/09/12 08:03:55;;;;;;;;;21.20;20.00;;;;;20.83;68.13;99563.34;5095267;28;8862;-60
2023/09/12 08:06:24;;;;;;;;;23.60;21.40;;;;;20.92;68.54;99564.91;5094770;28;8822;-59
2023/09/12 08:08:52;;;;;;;;;27.00;26.40;;;;;21.02;68.04;99571.66;5095229;28;8822;-59
2023/09/12 08:11:20;;;;;;;;;19.20;16.40;;;;;21.13;68.25;99578.41;5095199;28;8918;-59
2023/09/12 08:13:48;;;;;;;;;21.20;17.60;;;;;21.21;67.65;99575.53;5095204;28;8936;-60
2023/09/12 08:16:15;;;;;;;;;18.80;16.80;;;;;21.31;67.18;99578.72;5095746;28;8982;-61
2023/09/12 08:18:43;;;;;;;;;18.60;16.60;;;;;21.38;67.47;99583.16;5095042;28;8833;-58
2023/09/12 08:21:11;;;;;;;;;18.80;17.60;;;;;21.41;67.63;99592.78;5093549;28;8830;-59
2023/09/12 08:23:39;;;;;;;;;19.80;17.80;;;;;21.41;67.54;99587.34;5095247;28;8842;-61
2023/09/12 08:26:09;;;;;;;;;16.60;15.20;;;;;21.41;67.74;99593.59;5095886;28;8834;-59
2023/09/12 08:28:36;;;;;;;;;17.60;15.00;;;;;21.43;67.69;99591.53;5095326;28;8842;-61
2023/09/12 08:31:04;;;;;;;;;21.40;16.00;;;;;21.44;67.71;99582.38;5095746;28;8968;-59
2023/09/12 08:33:33;;;;;;;;;20.40;18.60;;;;;21.45;67.84;99586.75;5095299;28;8822;-60
2023/09/12 08:36:01;;;;;;;;;19.60;17.20;;;;;21.46;67.63;99590.28;5095185;28;8838;-59
2023/09/12 08:38:28;;;;;;;;;15.00;14.80;;;;;21.48;67.66;99590.94;5095610;28;8830;-59
2023/09/12 08:40:57;;;;;;;;;14.00;11.00;;;;;21.54;67.42;99582.81;5095563;28;8856;-60
2023/09/12 08:43:24;;;;;;;;;16.40;14.80;;;;;21.66;67.41;99583.13;5094865;28;8950;-60
2023/09/12 08:45:52;;;;;;;;;13.60;12.00;;;;;21.78;67.10;99589.66;5094903;28;8854;-60
2023/09/12 08:48:20;;;;;;;;;14.40;12.60;;;;;21.90;66.58;99593.44;5095462;28;9515;-58
2023/09/12 08:50:51;;;;;;;;;15.20;14.80;;;;;21.97;66.69;99591.59;5095568;28;8838;-59
2023/09/12 08:53:22;;;;;;;;;14.00;14.00;;;;;22.00;66.76;99593.94;5095036;28;8825;-58
2023/09/12 08:55:51;;;;;;;;;12.40;12.40;;;;;22.01;66.31;99595.59;5094770;28;8822;-59
2023/09/12 08:58:19;;;;;;;;;8.80;8.40;;;;;22.02;66.56;99603.50;5095203;28;8830;-59
2023/09/12 09:00:47;;;;;;;;;15.40;14.40;;;;;22.09;66.56;99585.38;5095157;28;8826;-59
2023/09/12 09:03:16;;;;;;;;;11.20;10.80;;;;;22.17;66.69;99589.81;5095116;28;8873;-59
2023/09/12 09:05:43;;;;;;;;;8.40;8.00;;;;;22.22;66.44;99593.56;5095167;28;8834;-59
2023/09/12 09:08:11;;;;;;;;;11.00;10.60;;;;;22.24;66.33;99593.38;5095846;28;8841;-59
2023/09/12 09:10:39;;;;;;;;;12.60;11.60;;;;;22.20;66.69;99600.22;5095222;28;8922;-59
2023/09/12 09:13:17;;;;;;;;;13.60;12.00;;;;;22.12;66.86;99592.28;5095370;28;8948;-60
2023/09/12 09:15:45;;;;;;;;;9.80;8.60;;;;;22.06;67.52;99577.66;5095003;28;8852;-59
2023/09/12 09:18:13;;;;;;;;;12.20;11.80;;;;;22.01;67.15;99576.59;5094981;28;8818;-59
2023/09/12 09:20:42;;;;;;;;;12.80;11.60;;;;;22.02;67.35;99581.00;5094587;28;8842;-61
2023/09/12 09:23:10;;;;;;;;;8.00;7.20;;;;;22.14;67.30;99584.75;5093682;28;8838;-59
2023/09/12 09:25:39;;;;;;;;;12.20;12.00;;;;;22.32;66.67;99587.75;5092457;28;9745;-60
2023/09/12 09:28:06;;;;;;;;;13.00;10.40;;;;;22.47;66.52;99585.72;5093885;28;8826;-60
2023/09/12 09:30:33;;;;;;;;;11.20;9.40;;;;;22.62;65.99;99583.66;5093738;28;8846;-60
2023/09/12 09:33:01;;;;;;;;;13.40;11.40;;;;;22.80;65.99;99583.88;5093862;28;8834;-59
2023/09/12 09:35:29;;;;;;;;;10.80;9.40;;;;;22.97;65.32;99585.13;5094207;28;8806;-61
2023/09/12 09:37:58;;;;;;;;;12.60;10.40;;;;;23.18;65.09;99584.91;5095110;28;8885;-59
2023/09/12 09:40:25;;;;;;;;;8.80;8.00;;;;;23.39;64.35;99576.53;5094312;28;8849;-60
2023/09/12 09:42:53;;;;;;;;;8.00;6.40;;;;;23.50;64.07;99581.28;5094586;28;8846;-59
2023/09/12 09:45:22;;;;;;;;;11.20;9.80;;;;;23.55;64.18;99576.91;5093988;28;8845;-59
2023/09/12 09:47:50;;;;;;;;;10.20;9.00;;;;;23.62;64.09;99585.03;5094233;28;8822;-59
2023/09/12 09:50:18;;;;;;;;;13.00;12.40;;;;;23.78;63.70;99579.97;5094511;28;8956;-59
2023/09/12 09:52:48;;;;;;;;;9.00;7.20;;;;;24.01;63.77;99576.75;5094418;28;8834;-59
2023/09/12 09:55:16;;;;;;;;;6.20;6.20;;;;;24.19;62.69;99569.53;5094473;28;8961;-59
2023/09/12 09:57:44;;;;;;;;;12.80;11.00;;;;;24.35;63.13;99570.94;5094987;28;9054;-59
2023/09/12 10:00:14;;;;;;;;;10.40;9.60;;;;;24.85;61.69;99567.22;5094897;28;8853;-59
2023/09/12 10:02:43;;;;;;;;;7.80;7.40;;;;;25.41;60.79;99568.81;5094392;28;8862;-59
2023/09/12 10:05:13;;;;;;;;;9.40;7.40;;;;;25.59;60.56;99566.94;5094735;28;8826;-59
2023/09/12 10:07:41;;;;;;;;;10.20;9.60;;;;;25.58;60.50;99567.16;5094626;28;8818;-60
2023/09/12 10:10:09;;;;;;;;;9.00;7.00;;;;;25.52;61.36;99567.22;5094564;28;8912;-60
2023/09/12 10:12:37;;;;;;;;;11.00;11.00;;;;;25.56;61.26;99573.91;5094861;28;8840;-60
2023/09/12 10:15:05;;;;;;;;;11.00;9.00;;;;;25.58;61.22;99578.91;5094834;28;8822;-60
2023/09/12 10:17:33;;;;;;;;;10.00;8.40;;;;;25.44;61.38;99586.63;5094595;28;8968;-59
2023/09/12 10:20:02;;;;;;;;;8.80;7.80;;;;;25.28;61.79;99598.13;5094612;28;8961;-59
2023/09/12 10:22:31;;;;;;;;;11.60;10.60;;;;;25.10;62.33;99607.03;5094604;28;8860;-60
2023/09/12 10:24:59;;;;;;;;;10.00;9.40;;;;;24.98;62.41;99597.94;5094217;28;8838;-62
2023/09/12 10:27:26;;;;;;;;;9.00;9.00;;;;;24.98;62.70;99603.38;5093999;28;8830;-59
2023/09/12 10:29:56;;;;;;;;;10.00;9.40;;;;;24.99;62.60;99602.34;5094322;28;8849;-59
2023/09/12 10:32:24;;;;;;;;;7.60;7.60;;;;;25.24;62.09;99596.91;5094460;28;8840;-60
2023/09/12 10:34:51;;;;;;;;;6.00;6.00;;;;;25.56;61.05;99596.56;5094234;28;8829;-60
2023/09/12 10:37:19;;;;;;;;;10.00;9.00;;;;;25.75;60.86;99599.06;5096945;28;8964;-60
2023/09/12 10:39:47;;;;;;;;;6.80;6.00;;;;;25.95;60.22;99602.44;5098477;28;8822;-59
2023/09/12 10:42:15;;;;;;;;;7.60;6.00;;;;;26.28;59.78;99608.28;5098520;28;8827;-61
2023/09/12 10:44:43;;;;;;;;;6.00;5.20;;;;;26.59;58.90;99604.53;5098545;28;8834;-59
2023/09/12 10:47:11;;;;;;;;;9.20;6.20;;;;;26.84;58.91;99594.25;5097634;28;8858;-60
2023/09/12 10:49:39;;;;;;;;;8.00;6.60;;;;;27.06;58.03;99593.47;5097730;28;8830;-60
2023/09/12 10:52:09;;;;;;;;;7.00;7.00;;;;;27.26;58.17;99590.41;5097837;28;8842;-60
2023/09/12 10:54:36;;;;;;;;;6.00;5.40;;;;;27.37;57.99;99592.31;5097849;28;8846;-60
2023/09/12 10:57:05;;;;;;;;;6.40;4.80;;;;;27.45;57.35;99581.84;5097929;28;8826;-60
2023/09/12 10:59:35;;;;;;;;;6.20;6.00;;;;;27.47;57.60;99585.16;5097281;28;8965;-59
2023/09/12 11:02:03;;;;;;;;;7.00;6.80;;;;;27.42;58.21;99585.06;5097723;28;8846;-60
2023/09/12 11:04:33;;;;;;;;;6.40;5.20;;;;;27.50;58.15;99579.25;5097454;28;8915;-59
2023/09/12 11:07:01;;;;;;;;;7.40;7.00;;;;;27.52;58.26;99593.50;5097503;28;8953;-60
2023/09/12 11:09:29;;;;;;;;;8.40;8.40;;;;;27.62;57.83;99590.16;5097515;28;8844;-60
2023/09/12 11:11:57;;;;;;;;;8.20;8.00;;;;;27.66;57.35;99594.91;5097104;28;8860;-61
2023/09/12 11:14:26;;;;;;;;;8.00;6.80;;;;;27.89;56.92;99585.84;5096800;28;8822;-60
2023/09/12 11:16:54;;;;;;;;;8.80;8.80;;;;;28.17;56.73;99583.16;5095800;28;8841;-60
2023/09/12 11:19:23;;;;;;;;;11.20;10.80;;;;;28.51;56.27;99577.56;5096049;28;9507;-60
2023/09/12 11:21:50;;;;;;;;;11.00;10.20;;;;;28.76;55.82;99575.25;5095809;28;8834;-60
2023/09/12 11:24:19;;;;;;;;;11.60;11.20;;;;;28.68;55.83;99581.16;5096417;28;8859;-60
2023/09/12 11:26:47;;;;;;;;;11.80;11.00;;;;;28.82;55.43;99571.53;5096251;28;8837;-60
2023/09/12 11:29:17;;;;;;;;;9.80;9.00;;;;;29.09;54.63;99569.84;5096707;28;8853;-60
2023/09/12 11:31:44;;;;;;;;;9.00;8.00;;;;;29.32;54.74;99572.38;5095807;28;8830;-60
2023/09/12 11:34:12;;;;;;;;;3.60;3.60;;;;;29.72;53.63;99562.00;5095585;28;8841;-61